sensor_id;sensor_type;location;lat;lon;timestamp;P1;durP1;ratioP1;P2;durP2;ratioP2
75737;SDS011;64356;45.638;13.764;2022-11-20T00:00:24;3.53;;;0.80;;
75737;SDS011;64356;45.638;13.764;2022-11-20T00:02:49;2.03;;;0.50;;
75737;SDS011;64356;45.638;13.764;2022-11-20T00:05:15;1.00;;;0.50;;
75737;SDS011;64356;45.638;13.764;2022-11-20T00:07:40;1.40;;;0.63;;
75737;SDS011;64356;45.638;13.764;2022-11-20T00:10:06;7.55;;;1.10;;
75737;SDS011;64356;45.638;13.764;2022-11-20T00:12:32;1.90;;;0.52;;
75737;SDS011;64356;45.638;13.764;2022-11-20T00:14:58;5.53;;;0.88;;
75737;SDS011;64356;45.638;13.764;2022-11-20T00:17:23;7.32;;;0.90;;
75737;SDS011;64356;45.638;13.764;2022-11-20T00:19:49;2.65;;;0.60;;
75737;SDS011;64356;45.638;13.764;2022-11-20T00:22:15;1.00;;;0.60;;
75737;SDS011;64356;45.638;13.764;2022-11-20T00:24:40;1.38;;;0.60;;
75737;SDS011;64356;45.638;13.764;2022-11-20T00:27:06;5.60;;;0.80;;
75737;SDS011;64356;45.638;13.764;2022-11-20T00:29:31;4.00;;;0.82;;
75737;SDS011;64356;45.638;13.764;2022-11-20T00:31:57;0.55;;;0.55;;
75737;SDS011;64356;45.638;13.764;2022-11-20T00:34:22;3.22;;;0.88;;
75737;SDS011;64356;45.638;13.764;2022-11-20T00:36:48;1.90;;;0.50;;
75737;SDS011;64356;45.638;13.764;2022-11-20T00:39:14;4.03;;;0.70;;
75737;SDS011;64356;45.638;13.764;2022-11-20T00:41:39;2.67;;;0.55;;
75737;SDS011;64356;45.638;13.764;2022-11-20T00:44:05;2.42;;;0.88;;
75737;SDS011;64356;45.638;13.764;2022-11-20T00:46:31;0.80;;;0.50;;
75737;SDS011;64356;45.638;13.764;2022-11-20T00:48:57;2.42;;;0.60;;
75737;SDS011;64356;45.638;13.764;2022-11-20T00:51:23;1.58;;;0.70;;
75737;SDS011;64356;45.638;13.764;2022-11-20T00:53:50;0.57;;;0.55;;
75737;SDS011;64356;45.638;13.764;2022-11-20T00:56:17;1.05;;;0.52;;
75737;SDS011;64356;45.638;13.764;2022-11-20T00:58:45;3.00;;;1.17;;
75737;SDS011;64356;45.638;13.764;2022-11-20T01:01:13;2.60;;;0.60;;
75737;SDS011;64356;45.638;13.764;2022-11-20T01:03:46;2.75;;;0.50;;
75737;SDS011;64356;45.638;13.764;2022-11-20T01:06:17;1.52;;;0.60;;
75737;SDS011;64356;45.638;13.764;2022-11-20T01:08:48;3.10;;;1.05;;
75737;SDS011;64356;45.638;13.764;2022-11-20T01:11:18;0.98;;;0.40;;
75737;SDS011;64356;45.638;13.764;2022-11-20T01:16:13;0.60;;;0.38;;
75737;SDS011;64356;45.638;13.764;2022-11-20T01:18:40;3.17;;;0.68;;
75737;SDS011;64356;45.638;13.764;2022-11-20T01:21:09;0.30;;;0.30;;
75737;SDS011;64356;45.638;13.764;2022-11-20T01:23:38;8.40;;;0.80;;
75737;SDS011;64356;45.638;13.764;2022-11-20T01:26:10;0.38;;;0.32;;
75737;SDS011;64356;45.638;13.764;2022-11-20T01:28:41;6.05;;;0.40;;
75737;SDS011;64356;45.638;13.764;2022-11-20T01:31:15;1.25;;;0.35;;
75737;SDS011;64356;45.638;13.764;2022-11-20T01:33:42;1.35;;;0.55;;
75737;SDS011;64356;45.638;13.764;2022-11-20T01:36:10;0.50;;;0.50;;
75737;SDS011;64356;45.638;13.764;2022-11-20T01:38:36;6.43;;;0.60;;
75737;SDS011;64356;45.638;13.764;2022-11-20T01:41:02;0.50;;;0.40;;
75737;SDS011;64356;45.638;13.764;2022-11-20T01:43:28;2.47;;;0.60;;
75737;SDS011;64356;45.638;13.764;2022-11-20T01:49:09;0.85;;;0.50;;
75737;SDS011;64356;45.638;13.764;2022-11-20T01:53:56;0.57;;;0.50;;
75737;SDS011;64356;45.638;13.764;2022-11-20T01:56:26;1.27;;;0.40;;
75737;SDS011;64356;45.638;13.764;2022-11-20T01:58:56;0.68;;;0.38;;
75737;SDS011;64356;45.638;13.764;2022-11-20T02:01:23;3.30;;;0.60;;
75737;SDS011;64356;45.638;13.764;2022-11-20T02:03:49;0.85;;;0.30;;
75737;SDS011;64356;45.638;13.764;2022-11-20T02:06:19;1.70;;;0.40;;
75737;SDS011;64356;45.638;13.764;2022-11-20T02:08:49;0.82;;;0.40;;
75737;SDS011;64356;45.638;13.764;2022-11-20T02:11:16;0.95;;;0.40;;
75737;SDS011;64356;45.638;13.764;2022-11-20T02:13:42;0.65;;;0.57;;
75737;SDS011;64356;45.638;13.764;2022-11-20T02:16:18;2.53;;;0.50;;
75737;SDS011;64356;45.638;13.764;2022-11-20T02:18:48;3.85;;;0.75;;
75737;SDS011;64356;45.638;13.764;2022-11-20T02:24:31;0.30;;;0.30;;
75737;SDS011;64356;45.638;13.764;2022-11-20T02:26:48;0.73;;;0.32;;
75737;SDS011;64356;45.638;13.764;2022-11-20T02:29:33;0.85;;;0.63;;
75737;SDS011;64356;45.638;13.764;2022-11-20T02:32:04;0.20;;;0.20;;
75737;SDS011;64356;45.638;13.764;2022-11-20T02:34:30;2.03;;;0.35;;
75737;SDS011;64356;45.638;13.764;2022-11-20T02:36:56;0.25;;;0.25;;
75737;SDS011;64356;45.638;13.764;2022-11-20T02:39:22;0.30;;;0.30;;
75737;SDS011;64356;45.638;13.764;2022-11-20T02:41:52;0.38;;;0.30;;
75737;SDS011;64356;45.638;13.764;2022-11-20T02:44:19;0.90;;;0.35;;
75737;SDS011;64356;45.638;13.764;2022-11-20T02:46:45;16.70;;;0.75;;
75737;SDS011;64356;45.638;13.764;2022-11-20T02:49:11;1.20;;;0.40;;
75737;SDS011;64356;45.638;13.764;2022-11-20T02:51:37;0.28;;;0.28;;
75737;SDS011;64356;45.638;13.764;2022-11-20T02:54:03;0.73;;;0.30;;
75737;SDS011;64356;45.638;13.764;2022-11-20T02:56:29;2.63;;;0.50;;
75737;SDS011;64356;45.638;13.764;2022-11-20T02:58:55;0.80;;;0.57;;
75737;SDS011;64356;45.638;13.764;2022-11-20T03:01:20;1.13;;;0.30;;
75737;SDS011;64356;45.638;13.764;2022-11-20T03:03:46;0.85;;;0.32;;
75737;SDS011;64356;45.638;13.764;2022-11-20T03:06:13;0.40;;;0.40;;
75737;SDS011;64356;45.638;13.764;2022-11-20T03:08:40;0.55;;;0.25;;
75737;SDS011;64356;45.638;13.764;2022-11-20T03:11:06;2.28;;;0.40;;
75737;SDS011;64356;45.638;13.764;2022-11-20T03:13:33;3.05;;;0.38;;
75737;SDS011;64356;45.638;13.764;2022-11-20T03:16:07;0.30;;;0.28;;
75737;SDS011;64356;45.638;13.764;2022-11-20T03:18:37;0.40;;;0.30;;
75737;SDS011;64356;45.638;13.764;2022-11-20T03:21:04;0.90;;;0.38;;
75737;SDS011;64356;45.638;13.764;2022-11-20T03:23:30;0.25;;;0.20;;
75737;SDS011;64356;45.638;13.764;2022-11-20T03:26:07;0.52;;;0.40;;
75737;SDS011;64356;45.638;13.764;2022-11-20T03:28:40;0.70;;;0.35;;
75737;SDS011;64356;45.638;13.764;2022-11-20T03:31:11;0.60;;;0.50;;
75737;SDS011;64356;45.638;13.764;2022-11-20T03:36:06;0.30;;;0.30;;
75737;SDS011;64356;45.638;13.764;2022-11-20T03:38:33;1.73;;;0.40;;
75737;SDS011;64356;45.638;13.764;2022-11-20T03:41:04;0.73;;;0.43;;
75737;SDS011;64356;45.638;13.764;2022-11-20T03:43:31;1.70;;;0.47;;
75737;SDS011;64356;45.638;13.764;2022-11-20T03:45:58;0.20;;;0.20;;
75737;SDS011;64356;45.638;13.764;2022-11-20T03:48:24;0.40;;;0.20;;
75737;SDS011;64356;45.638;13.764;2022-11-20T03:50:50;0.22;;;0.22;;
75737;SDS011;64356;45.638;13.764;2022-11-20T03:53:16;0.25;;;0.25;;
75737;SDS011;64356;45.638;13.764;2022-11-20T03:55:42;0.80;;;0.32;;
75737;SDS011;64356;45.638;13.764;2022-11-20T03:58:08;0.35;;;0.32;;
75737;SDS011;64356;45.638;13.764;2022-11-20T04:00:35;1.65;;;0.43;;
75737;SDS011;64356;45.638;13.764;2022-11-20T04:03:01;0.55;;;0.30;;
75737;SDS011;64356;45.638;13.764;2022-11-20T04:05:27;0.52;;;0.35;;
75737;SDS011;64356;45.638;13.764;2022-11-20T04:07:53;1.02;;;0.40;;
75737;SDS011;64356;45.638;13.764;2022-11-20T04:10:18;0.30;;;0.30;;
75737;SDS011;64356;45.638;13.764;2022-11-20T04:12:44;0.10;;;0.10;;
75737;SDS011;64356;45.638;13.764;2022-11-20T04:15:10;3.55;;;0.30;;
75737;SDS011;64356;45.638;13.764;2022-11-20T04:17:35;0.35;;;0.20;;
75737;SDS011;64356;45.638;13.764;2022-11-20T04:20:02;0.20;;;0.20;;
75737;SDS011;64356;45.638;13.764;2022-11-20T04:22:28;0.22;;;0.22;;
75737;SDS011;64356;45.638;13.764;2022-11-20T04:24:53;1.05;;;0.40;;
75737;SDS011;64356;45.638;13.764;2022-11-20T04:27:20;0.20;;;0.20;;
75737;SDS011;64356;45.638;13.764;2022-11-20T04:29:45;5.47;;;0.40;;
75737;SDS011;64356;45.638;13.764;2022-11-20T04:32:11;0.20;;;0.20;;
75737;SDS011;64356;45.638;13.764;2022-11-20T04:34:37;0.90;;;0.30;;
75737;SDS011;64356;45.638;13.764;2022-11-20T04:37:02;0.30;;;0.30;;
75737;SDS011;64356;45.638;13.764;2022-11-20T04:39:28;1.08;;;0.50;;
75737;SDS011;64356;45.638;13.764;2022-11-20T04:41:54;0.10;;;0.10;;
75737;SDS011;64356;45.638;13.764;2022-11-20T04:44:39;0.38;;;0.30;;
75737;SDS011;64356;45.638;13.764;2022-11-20T04:47:05;0.20;;;0.20;;
75737;SDS011;64356;45.638;13.764;2022-11-20T04:49:31;0.30;;;0.30;;
75737;SDS011;64356;45.638;13.764;2022-11-20T04:51:57;1.35;;;0.60;;
75737;SDS011;64356;45.638;13.764;2022-11-20T04:54:23;0.77;;;0.50;;
75737;SDS011;64356;45.638;13.764;2022-11-20T04:56:49;0.30;;;0.22;;
75737;SDS011;64356;45.638;13.764;2022-11-20T04:59:15;1.48;;;0.50;;
75737;SDS011;64356;45.638;13.764;2022-11-20T05:01:41;0.28;;;0.20;;
75737;SDS011;64356;45.638;13.764;2022-11-20T05:04:06;0.35;;;0.30;;
75737;SDS011;64356;45.638;13.764;2022-11-20T05:06:32;0.17;;;0.17;;
75737;SDS011;64356;45.638;13.764;2022-11-20T05:08:58;0.30;;;0.30;;
75737;SDS011;64356;45.638;13.764;2022-11-20T05:11:24;0.25;;;0.25;;
75737;SDS011;64356;45.638;13.764;2022-11-20T05:13:50;0.25;;;0.22;;
75737;SDS011;64356;45.638;13.764;2022-11-20T05:16:20;0.70;;;0.47;;
75737;SDS011;64356;45.638;13.764;2022-11-20T05:18:47;2.05;;;0.28;;
75737;SDS011;64356;45.638;13.764;2022-11-20T05:21:14;0.77;;;0.30;;
75737;SDS011;64356;45.638;13.764;2022-11-20T05:23:40;0.70;;;0.20;;
75737;SDS011;64356;45.638;13.764;2022-11-20T05:26:08;0.22;;;0.22;;
75737;SDS011;64356;45.638;13.764;2022-11-20T05:31:07;0.30;;;0.20;;
75737;SDS011;64356;45.638;13.764;2022-11-20T05:33:35;0.30;;;0.30;;
75737;SDS011;64356;45.638;13.764;2022-11-20T05:36:02;0.77;;;0.40;;
75737;SDS011;64356;45.638;13.764;2022-11-20T05:38:29;0.30;;;0.30;;
75737;SDS011;64356;45.638;13.764;2022-11-20T05:40:55;0.40;;;0.30;;
75737;SDS011;64356;45.638;13.764;2022-11-20T05:43:27;0.65;;;0.20;;
75737;SDS011;64356;45.638;13.764;2022-11-20T05:45:53;0.32;;;0.30;;
75737;SDS011;64356;45.638;13.764;2022-11-20T05:48:19;0.30;;;0.30;;
75737;SDS011;64356;45.638;13.764;2022-11-20T05:50:44;0.20;;;0.20;;
75737;SDS011;64356;45.638;13.764;2022-11-20T05:53:10;0.40;;;0.30;;
75737;SDS011;64356;45.638;13.764;2022-11-20T05:55:36;0.77;;;0.30;;
75737;SDS011;64356;45.638;13.764;2022-11-20T05:58:01;1.00;;;0.40;;
75737;SDS011;64356;45.638;13.764;2022-11-20T06:00:27;0.30;;;0.30;;
75737;SDS011;64356;45.638;13.764;2022-11-20T06:02:53;1.30;;;0.28;;
75737;SDS011;64356;45.638;13.764;2022-11-20T06:05:18;0.57;;;0.30;;
75737;SDS011;64356;45.638;13.764;2022-11-20T06:07:44;0.80;;;0.30;;
75737;SDS011;64356;45.638;13.764;2022-11-20T06:10:10;0.30;;;0.30;;
75737;SDS011;64356;45.638;13.764;2022-11-20T06:12:36;0.47;;;0.20;;
75737;SDS011;64356;45.638;13.764;2022-11-20T06:15:01;0.60;;;0.28;;
75737;SDS011;64356;45.638;13.764;2022-11-20T06:17:27;0.30;;;0.30;;
75737;SDS011;64356;45.638;13.764;2022-11-20T06:19:53;0.30;;;0.30;;
75737;SDS011;64356;45.638;13.764;2022-11-20T06:22:19;0.70;;;0.20;;
75737;SDS011;64356;45.638;13.764;2022-11-20T06:24:44;0.30;;;0.30;;
75737;SDS011;64356;45.638;13.764;2022-11-20T06:27:10;1.00;;;0.40;;
75737;SDS011;64356;45.638;13.764;2022-11-20T06:29:35;0.80;;;0.50;;
75737;SDS011;64356;45.638;13.764;2022-11-20T06:32:01;0.30;;;0.30;;
75737;SDS011;64356;45.638;13.764;2022-11-20T06:34:27;0.82;;;0.22;;
75737;SDS011;64356;45.638;13.764;2022-11-20T06:36:52;0.25;;;0.25;;
75737;SDS011;64356;45.638;13.764;2022-11-20T06:39:18;1.02;;;0.25;;
75737;SDS011;64356;45.638;13.764;2022-11-20T06:41:43;0.93;;;0.43;;
75737;SDS011;64356;45.638;13.764;2022-11-20T06:44:09;0.32;;;0.30;;
75737;SDS011;64356;45.638;13.764;2022-11-20T06:46:35;1.05;;;0.35;;
75737;SDS011;64356;45.638;13.764;2022-11-20T06:49:00;0.20;;;0.20;;
75737;SDS011;64356;45.638;13.764;2022-11-20T06:51:26;0.30;;;0.30;;
75737;SDS011;64356;45.638;13.764;2022-11-20T06:53:52;0.20;;;0.20;;
75737;SDS011;64356;45.638;13.764;2022-11-20T06:56:18;0.90;;;0.40;;
75737;SDS011;64356;45.638;13.764;2022-11-20T06:58:44;0.20;;;0.20;;
75737;SDS011;64356;45.638;13.764;2022-11-20T07:01:10;0.13;;;0.13;;
75737;SDS011;64356;45.638;13.764;2022-11-20T07:03:37;0.20;;;0.20;;
75737;SDS011;64356;45.638;13.764;2022-11-20T07:06:04;0.30;;;0.25;;
75737;SDS011;64356;45.638;13.764;2022-11-20T07:08:30;0.35;;;0.20;;
75737;SDS011;64356;45.638;13.764;2022-11-20T07:10:58;1.15;;;0.30;;
75737;SDS011;64356;45.638;13.764;2022-11-20T07:13:29;0.90;;;0.30;;
75737;SDS011;64356;45.638;13.764;2022-11-20T07:15:59;0.30;;;0.30;;
75737;SDS011;64356;45.638;13.764;2022-11-20T07:18:29;0.40;;;0.30;;
75737;SDS011;64356;45.638;13.764;2022-11-20T07:20:54;0.30;;;0.30;;
75737;SDS011;64356;45.638;13.764;2022-11-20T07:23:20;0.20;;;0.20;;
75737;SDS011;64356;45.638;13.764;2022-11-20T07:25:46;0.20;;;0.20;;
75737;SDS011;64356;45.638;13.764;2022-11-20T07:28:11;0.47;;;0.30;;
75737;SDS011;64356;45.638;13.764;2022-11-20T07:30:37;1.38;;;0.60;;
75737;SDS011;64356;45.638;13.764;2022-11-20T07:33:03;0.30;;;0.30;;
75737;SDS011;64356;45.638;13.764;2022-11-20T07:35:28;0.88;;;0.43;;
75737;SDS011;64356;45.638;13.764;2022-11-20T07:37:54;0.57;;;0.20;;
75737;SDS011;64356;45.638;13.764;2022-11-20T07:40:19;0.30;;;0.30;;
75737;SDS011;64356;45.638;13.764;2022-11-20T07:42:52;0.30;;;0.30;;
75737;SDS011;64356;45.638;13.764;2022-11-20T07:45:19;0.30;;;0.30;;
75737;SDS011;64356;45.638;13.764;2022-11-20T07:47:46;3.08;;;0.50;;
75737;SDS011;64356;45.638;13.764;2022-11-20T07:50:11;4.18;;;0.43;;
75737;SDS011;64356;45.638;13.764;2022-11-20T07:52:37;12.23;;;0.60;;
75737;SDS011;64356;45.638;13.764;2022-11-20T07:55:03;3.88;;;0.40;;
75737;SDS011;64356;45.638;13.764;2022-11-20T07:57:30;1.48;;;0.50;;
75737;SDS011;64356;45.638;13.764;2022-11-20T07:59:55;1.35;;;0.40;;
75737;SDS011;64356;45.638;13.764;2022-11-20T08:02:21;1.10;;;0.45;;
75737;SDS011;64356;45.638;13.764;2022-11-20T08:04:47;4.00;;;0.40;;
75737;SDS011;64356;45.638;13.764;2022-11-20T08:07:12;0.40;;;0.30;;
75737;SDS011;64356;45.638;13.764;2022-11-20T08:09:38;2.00;;;0.43;;
75737;SDS011;64356;45.638;13.764;2022-11-20T08:12:04;1.35;;;0.38;;
75737;SDS011;64356;45.638;13.764;2022-11-20T08:14:48;5.13;;;0.70;;
75737;SDS011;64356;45.638;13.764;2022-11-20T08:17:14;2.25;;;0.65;;
75737;SDS011;64356;45.638;13.764;2022-11-20T08:19:39;0.82;;;0.35;;
75737;SDS011;64356;45.638;13.764;2022-11-20T08:22:05;2.63;;;0.40;;
75737;SDS011;64356;45.638;13.764;2022-11-20T08:24:31;0.85;;;0.22;;
75737;SDS011;64356;45.638;13.764;2022-11-20T08:26:57;1.27;;;0.55;;
75737;SDS011;64356;45.638;13.764;2022-11-20T08:29:24;1.27;;;0.47;;
75737;SDS011;64356;45.638;13.764;2022-11-20T08:31:51;1.00;;;0.50;;
75737;SDS011;64356;45.638;13.764;2022-11-20T08:34:16;0.55;;;0.40;;
75737;SDS011;64356;45.638;13.764;2022-11-20T08:36:42;4.03;;;1.17;;
75737;SDS011;64356;45.638;13.764;2022-11-20T08:39:11;1.30;;;0.35;;
75737;SDS011;64356;45.638;13.764;2022-11-20T08:41:39;0.22;;;0.20;;
75737;SDS011;64356;45.638;13.764;2022-11-20T08:44:05;1.63;;;0.40;;
75737;SDS011;64356;45.638;13.764;2022-11-20T08:46:33;1.05;;;0.50;;
75737;SDS011;64356;45.638;13.764;2022-11-20T08:49:03;0.30;;;0.30;;
75737;SDS011;64356;45.638;13.764;2022-11-20T08:51:29;2.05;;;0.60;;
75737;SDS011;64356;45.638;13.764;2022-11-20T08:53:55;3.88;;;0.60;;
75737;SDS011;64356;45.638;13.764;2022-11-20T08:56:21;3.83;;;0.30;;
75737;SDS011;64356;45.638;13.764;2022-11-20T08:58:47;0.68;;;0.30;;
75737;SDS011;64356;45.638;13.764;2022-11-20T09:01:12;2.38;;;0.65;;
75737;SDS011;64356;45.638;13.764;2022-11-20T09:03:38;0.50;;;0.40;;
75737;SDS011;64356;45.638;13.764;2022-11-20T09:06:05;4.32;;;0.40;;
75737;SDS011;64356;45.638;13.764;2022-11-20T09:08:32;1.17;;;0.40;;
75737;SDS011;64356;45.638;13.764;2022-11-20T09:10:58;0.35;;;0.30;;
75737;SDS011;64356;45.638;13.764;2022-11-20T09:13:27;0.73;;;0.50;;
75737;SDS011;64356;45.638;13.764;2022-11-20T09:15:57;0.50;;;0.50;;
75737;SDS011;64356;45.638;13.764;2022-11-20T09:18:32;0.57;;;0.47;;
75737;SDS011;64356;45.638;13.764;2022-11-20T09:21:02;2.40;;;0.60;;
75737;SDS011;64356;45.638;13.764;2022-11-20T09:23:33;1.27;;;0.47;;
75737;SDS011;64356;45.638;13.764;2022-11-20T09:26:10;4.93;;;1.65;;
75737;SDS011;64356;45.638;13.764;2022-11-20T09:28:37;13.57;;;1.80;;
75737;SDS011;64356;45.638;13.764;2022-11-20T09:31:06;6.43;;;1.35;;
75737;SDS011;64356;45.638;13.764;2022-11-20T09:33:33;2.45;;;0.85;;
75737;SDS011;64356;45.638;13.764;2022-11-20T09:35:59;4.35;;;1.33;;
75737;SDS011;64356;45.638;13.764;2022-11-20T09:38:25;6.20;;;1.40;;
75737;SDS011;64356;45.638;13.764;2022-11-20T09:41:03;8.85;;;1.60;;
75737;SDS011;64356;45.638;13.764;2022-11-20T09:46:29;12.43;;;1.83;;
75737;SDS011;64356;45.638;13.764;2022-11-20T09:54:36;6.40;;;1.98;;
75737;SDS011;64356;45.638;13.764;2022-11-20T09:57:14;7.68;;;1.35;;
75737;SDS011;64356;45.638;13.764;2022-11-20T09:59:50;6.07;;;1.85;;
75737;SDS011;64356;45.638;13.764;2022-11-20T10:02:28;5.60;;;1.50;;
75737;SDS011;64356;45.638;13.764;2022-11-20T10:05:04;4.38;;;1.55;;
75737;SDS011;64356;45.638;13.764;2022-11-20T10:10:43;3.53;;;1.27;;
75737;SDS011;64356;45.638;13.764;2022-11-20T10:18:23;8.70;;;1.83;;
75737;SDS011;64356;45.638;13.764;2022-11-20T10:21:36;7.82;;;2.00;;
75737;SDS011;64356;45.638;13.764;2022-11-20T10:30:00;7.75;;;2.20;;
75737;SDS011;64356;45.638;13.764;2022-11-20T10:32:36;5.82;;;2.90;;
75737;SDS011;64356;45.638;13.764;2022-11-20T10:37:59;12.48;;;3.05;;
75737;SDS011;64356;45.638;13.764;2022-11-20T10:40:38;7.47;;;3.13;;
75737;SDS011;64356;45.638;13.764;2022-11-20T10:43:09;5.15;;;2.40;;
75737;SDS011;64356;45.638;13.764;2022-11-20T10:46:03;5.35;;;1.98;;
75737;SDS011;64356;45.638;13.764;2022-11-20T10:48:34;9.73;;;2.33;;
75737;SDS011;64356;45.638;13.764;2022-11-20T10:56:53;3.92;;;1.55;;
75737;SDS011;64356;45.638;13.764;2022-11-20T11:02:20;5.28;;;1.35;;
75737;SDS011;64356;45.638;13.764;2022-11-20T11:04:56;6.28;;;1.58;;
75737;SDS011;64356;45.638;13.764;2022-11-20T11:07:24;18.73;;;3.58;;
75737;SDS011;64356;45.638;13.764;2022-11-20T11:10:05;20.88;;;4.38;;
75737;SDS011;64356;45.638;13.764;2022-11-20T11:12:42;18.50;;;6.10;;
75737;SDS011;64356;45.638;13.764;2022-11-20T11:15:11;24.85;;;7.47;;
75737;SDS011;64356;45.638;13.764;2022-11-20T11:17:46;28.05;;;6.45;;
75737;SDS011;64356;45.638;13.764;2022-11-20T11:20:16;27.83;;;6.70;;
75737;SDS011;64356;45.638;13.764;2022-11-20T11:22:45;26.35;;;5.80;;
75737;SDS011;64356;45.638;13.764;2022-11-20T11:25:24;40.33;;;7.75;;
75737;SDS011;64356;45.638;13.764;2022-11-20T11:27:56;42.45;;;9.05;;
75737;SDS011;64356;45.638;13.764;2022-11-20T11:30:24;26.23;;;7.20;;
75737;SDS011;64356;45.638;13.764;2022-11-20T11:33:02;24.48;;;6.35;;
75737;SDS011;64356;45.638;13.764;2022-11-20T11:35:32;26.48;;;6.97;;
75737;SDS011;64356;45.638;13.764;2022-11-20T11:38:05;26.38;;;7.68;;
75737;SDS011;64356;45.638;13.764;2022-11-20T11:40:33;27.60;;;7.28;;
75737;SDS011;64356;45.638;13.764;2022-11-20T11:43:05;21.75;;;6.93;;
75737;SDS011;64356;45.638;13.764;2022-11-20T11:46:01;25.25;;;6.00;;
75737;SDS011;64356;45.638;13.764;2022-11-20T11:48:27;17.70;;;5.88;;
75737;SDS011;64356;45.638;13.764;2022-11-20T11:50:52;22.95;;;5.32;;
75737;SDS011;64356;45.638;13.764;2022-11-20T11:53:22;15.45;;;5.10;;
75737;SDS011;64356;45.638;13.764;2022-11-20T11:58:32;12.27;;;3.38;;
75737;SDS011;64356;45.638;13.764;2022-11-20T12:06:50;25.58;;;4.30;;
75737;SDS011;64356;45.638;13.764;2022-11-20T12:09:24;34.75;;;3.40;;
75737;SDS011;64356;45.638;13.764;2022-11-20T12:11:59;17.40;;;4.32;;
75737;SDS011;64356;45.638;13.764;2022-11-20T12:14:38;14.35;;;3.63;;
75737;SDS011;64356;45.638;13.764;2022-11-20T12:17:10;18.83;;;3.35;;
75737;SDS011;64356;45.638;13.764;2022-11-20T12:19:37;16.25;;;3.28;;
75737;SDS011;64356;45.638;13.764;2022-11-20T12:30:27;21.58;;;4.47;;
75737;SDS011;64356;45.638;13.764;2022-11-20T12:43:43;10.32;;;4.00;;
75737;SDS011;64356;45.638;13.764;2022-11-20T12:46:46;14.32;;;4.78;;
75737;SDS011;64356;45.638;13.764;2022-11-20T13:00:35;10.45;;;4.13;;
75737;SDS011;64356;45.638;13.764;2022-11-20T13:06:16;12.70;;;4.75;;
75737;SDS011;64356;45.638;13.764;2022-11-20T13:09:04;11.93;;;5.15;;
75737;SDS011;64356;45.638;13.764;2022-11-20T13:11:32;12.18;;;4.03;;
75737;SDS011;64356;45.638;13.764;2022-11-20T13:14:26;7.63;;;3.50;;
75737;SDS011;64356;45.638;13.764;2022-11-20T13:17:07;10.88;;;4.22;;
75737;SDS011;64356;45.638;13.764;2022-11-20T13:19:35;12.30;;;3.70;;
75737;SDS011;64356;45.638;13.764;2022-11-20T13:22:01;7.45;;;3.33;;
75737;SDS011;64356;45.638;13.764;2022-11-20T13:24:28;7.05;;;3.28;;
75737;SDS011;64356;45.638;13.764;2022-11-20T13:29:33;11.57;;;3.28;;
75737;SDS011;64356;45.638;13.764;2022-11-20T13:32:04;12.63;;;3.60;;
75737;SDS011;64356;45.638;13.764;2022-11-20T13:34:39;8.90;;;3.17;;
75737;SDS011;64356;45.638;13.764;2022-11-20T13:37:24;10.30;;;3.40;;
75737;SDS011;64356;45.638;13.764;2022-11-20T13:39:52;7.38;;;3.20;;
75737;SDS011;64356;45.638;13.764;2022-11-20T13:42:20;8.32;;;2.90;;
75737;SDS011;64356;45.638;13.764;2022-11-20T13:44:54;12.60;;;3.28;;
75737;SDS011;64356;45.638;13.764;2022-11-20T13:47:26;23.27;;;5.57;;
75737;SDS011;64356;45.638;13.764;2022-11-20T13:49:53;18.65;;;4.82;;
75737;SDS011;64356;45.638;13.764;2022-11-20T13:55:18;21.67;;;7.47;;
75737;SDS011;64356;45.638;13.764;2022-11-20T14:00:44;17.25;;;6.57;;
75737;SDS011;64356;45.638;13.764;2022-11-20T14:03:22;23.27;;;7.72;;
75737;SDS011;64356;45.638;13.764;2022-11-20T14:06:00;25.73;;;7.32;;
75737;SDS011;64356;45.638;13.764;2022-11-20T14:08:32;23.70;;;7.13;;
75737;SDS011;64356;45.638;13.764;2022-11-20T14:16:24;16.80;;;5.47;;
75737;SDS011;64356;45.638;13.764;2022-11-20T14:18:51;14.63;;;5.20;;
75737;SDS011;64356;45.638;13.764;2022-11-20T14:21:26;14.68;;;5.85;;
75737;SDS011;64356;45.638;13.764;2022-11-20T14:24:09;24.27;;;6.13;;
75737;SDS011;64356;45.638;13.764;2022-11-20T14:26:36;19.45;;;5.97;;
75737;SDS011;64356;45.638;13.764;2022-11-20T14:29:11;12.25;;;4.20;;
75737;SDS011;64356;45.638;13.764;2022-11-20T14:31:42;18.42;;;5.20;;
75737;SDS011;64356;45.638;13.764;2022-11-20T14:34:15;10.57;;;5.00;;
75737;SDS011;64356;45.638;13.764;2022-11-20T14:36:46;18.27;;;4.63;;
75737;SDS011;64356;45.638;13.764;2022-11-20T14:39:22;16.17;;;4.30;;
75737;SDS011;64356;45.638;13.764;2022-11-20T14:41:52;15.55;;;4.65;;
75737;SDS011;64356;45.638;13.764;2022-11-20T14:44:23;13.23;;;4.22;;
75737;SDS011;64356;45.638;13.764;2022-11-20T14:46:52;12.07;;;3.90;;
75737;SDS011;64356;45.638;13.764;2022-11-20T14:49:20;13.75;;;4.35;;
75737;SDS011;64356;45.638;13.764;2022-11-20T14:51:46;9.75;;;3.70;;
75737;SDS011;64356;45.638;13.764;2022-11-20T14:54:12;10.25;;;3.65;;
75737;SDS011;64356;45.638;13.764;2022-11-20T14:59:26;13.05;;;4.25;;
75737;SDS011;64356;45.638;13.764;2022-11-20T15:02:14;15.52;;;3.55;;
75737;SDS011;64356;45.638;13.764;2022-11-20T15:04:45;12.65;;;3.78;;
75737;SDS011;64356;45.638;13.764;2022-11-20T15:07:22;7.75;;;3.60;;
75737;SDS011;64356;45.638;13.764;2022-11-20T15:13:01;7.93;;;3.45;;
75737;SDS011;64356;45.638;13.764;2022-11-20T15:15:38;10.75;;;3.55;;
75737;SDS011;64356;45.638;13.764;2022-11-20T15:18:11;10.73;;;3.40;;
75737;SDS011;64356;45.638;13.764;2022-11-20T15:20:38;8.60;;;2.45;;
75737;SDS011;64356;45.638;13.764;2022-11-20T15:23:09;9.40;;;2.75;;
75737;SDS011;64356;45.638;13.764;2022-11-20T15:25:36;7.05;;;2.97;;
75737;SDS011;64356;45.638;13.764;2022-11-20T15:28:04;7.55;;;3.00;;
75737;SDS011;64356;45.638;13.764;2022-11-20T15:33:00;7.85;;;2.70;;
75737;SDS011;64356;45.638;13.764;2022-11-20T15:35:26;5.97;;;1.98;;
75737;SDS011;64356;45.638;13.764;2022-11-20T15:37:51;3.95;;;1.90;;
75737;SDS011;64356;45.638;13.764;2022-11-20T15:40:17;5.05;;;2.10;;
75737;SDS011;64356;45.638;13.764;2022-11-20T15:42:43;3.25;;;1.85;;
75737;SDS011;64356;45.638;13.764;2022-11-20T15:45:27;6.88;;;2.17;;
75737;SDS011;64356;45.638;13.764;2022-11-20T15:47:56;4.53;;;2.30;;
75737;SDS011;64356;45.638;13.764;2022-11-20T15:50:21;4.95;;;2.40;;
75737;SDS011;64356;45.638;13.764;2022-11-20T15:52:52;4.97;;;2.03;;
75737;SDS011;64356;45.638;13.764;2022-11-20T15:55:17;6.35;;;2.70;;
75737;SDS011;64356;45.638;13.764;2022-11-20T15:57:43;3.17;;;1.80;;
75737;SDS011;64356;45.638;13.764;2022-11-20T16:00:09;6.32;;;2.38;;
75737;SDS011;64356;45.638;13.764;2022-11-20T16:02:35;3.80;;;2.05;;
75737;SDS011;64356;45.638;13.764;2022-11-20T16:05:00;5.88;;;2.20;;
75737;SDS011;64356;45.638;13.764;2022-11-20T16:07:26;4.20;;;2.10;;
75737;SDS011;64356;45.638;13.764;2022-11-20T16:09:52;3.50;;;1.70;;
75737;SDS011;64356;45.638;13.764;2022-11-20T16:12:17;3.80;;;2.20;;
75737;SDS011;64356;45.638;13.764;2022-11-20T16:15:03;6.07;;;2.13;;
75737;SDS011;64356;45.638;13.764;2022-11-20T16:17:47;3.33;;;1.70;;
75737;SDS011;64356;45.638;13.764;2022-11-20T16:20:13;4.10;;;2.10;;
75737;SDS011;64356;45.638;13.764;2022-11-20T16:22:38;4.43;;;2.28;;
75737;SDS011;64356;45.638;13.764;2022-11-20T16:25:04;3.25;;;2.20;;
75737;SDS011;64356;45.638;13.764;2022-11-20T16:27:30;3.35;;;1.98;;
75737;SDS011;64356;45.638;13.764;2022-11-20T16:29:55;5.53;;;2.05;;
75737;SDS011;64356;45.638;13.764;2022-11-20T16:32:21;3.75;;;1.80;;
75737;SDS011;64356;45.638;13.764;2022-11-20T16:34:47;3.67;;;2.30;;